Weather History for Fergus Falls, MN

Change the Weather History Date:

Wednesday, November 21, 2012

  Actual Average Record
Temperature  
Mean Temperature 46 °F -  
Max Temperature 60 °F 32 °F 60 °F (2012)
Min Temperature 33 °F 18 °F -9 °F (1985)
Degree Days  
Heating Degree Days 18    
Moisture  
Dew Point 32 °F    
Average Humidity 61    
Maximum Humidity 87    
Minimum Humidity 34    
Precipitation  
Precipitation 0.00 in - - ()
Sea Level Pressure  
Sea Level Pressure 29.75 in    
Wind  
Wind Speed 8 mph (SSE)    
Max Wind Speed 15 mph    
Max Gust Speed 17 mph    
Visibility 10 miles    
Events      
Averages and records for this station are not official NWS values.
T = Trace of Precipitation, MM = Missing Value Source: NWS Daily Summary

Daily Weather History Graph

Daily Weather History Graph

Search for Another Location

Airport:

Trip Planner

Search our weather history database for the weather conditions in past years. The results will help you decide how hot, cold, wet, or windy it might be!

Date:

Astronomy

Nov. 21, 2012 Rise Set
Actual Time 7:34 AM CST 4:45 PM CST
Civil Twilight 7:01 AM CST 5:19 PM CST
Nautical Twilight 6:24 AM CST 5:56 PM CST
Astronomical Twilight 5:48 AM CST 6:31 PM CST
Moon 1:22 PM CST (11/21) 12:33 AM CST (11/21)
Length of Visible Light 10h 17m
Length of Day
9h 10m
First Quarter, 62% of the Moon is Illuminated
Nov 21
First Quarter
Nov 28
Full
Dec 6
Last Quarter
Dec 13
New
Dec 19
First Quarter

Hourly Weather History & Observations

Time (CST) Temp. Windchill Dew Point Humidity Pressure Visibility Wind Dir Wind Speed Gust Speed Precip Events Conditions
12:14 AM 39.2 °F 33.0 °F 28.4 °F 65% 29.90 in 10.0 mi SSE 9.2 mph - N/A   Clear
12:33 AM 39.2 °F 33.6 °F 28.4 °F 65% 29.89 in 10.0 mi SSE 8.1 mph - N/A   Clear
12:53 AM 39.2 °F 33.6 °F 28.4 °F 65% 29.89 in 10.0 mi SSE 8.1 mph - N/A   Clear
1:14 AM 37.4 °F 32.1 °F 28.4 °F 70% 29.89 in 10.0 mi SSE 6.9 mph - N/A   Clear
1:33 AM 37.4 °F 31.4 °F 28.4 °F 70% 29.88 in 10.0 mi SSE 8.1 mph - N/A   Clear
1:53 AM 37.4 °F 31.4 °F 28.4 °F 70% 29.89 in 10.0 mi SSE 8.1 mph - N/A   Clear
2:14 AM 37.4 °F 32.1 °F 28.4 °F 70% 29.90 in 10.0 mi SSE 6.9 mph - N/A   Clear
2:33 AM 35.6 °F 30.7 °F 28.4 °F 75% 29.89 in 10.0 mi SSE 5.8 mph - N/A   Clear
2:53 AM 35.6 °F 29.9 °F 28.4 °F 75% 29.89 in 10.0 mi SSE 6.9 mph - N/A   Clear
3:13 AM 35.6 °F 29.9 °F 28.4 °F 75% 29.88 in 10.0 mi SSE 6.9 mph - N/A   Clear
3:33 AM 37.4 °F 33.8 °F 28.4 °F 70% 29.87 in 10.0 mi SE 4.6 mph - N/A   Clear
3:53 AM 35.6 °F 30.7 °F 28.4 °F 75% 29.88 in 10.0 mi SSE 5.8 mph - N/A   Clear
4:13 AM 37.4 °F 32.8 °F 28.4 °F 70% 29.87 in 10.0 mi SE 5.8 mph - N/A   Clear
4:33 AM 33.8 °F 27.7 °F 28.4 °F 81% 29.88 in 10.0 mi SSE 6.9 mph - N/A   Clear
4:53 AM 33.8 °F 28.6 °F 28.4 °F 81% 29.88 in 10.0 mi SSE 5.8 mph - N/A   Clear
5:13 AM 35.6 °F 31.7 °F 28.4 °F 75% 29.88 in 10.0 mi SSE 4.6 mph - N/A   Clear
5:33 AM 35.6 °F 30.7 °F 28.4 °F 75% 29.88 in 10.0 mi SSE 5.8 mph - N/A   Clear
5:53 AM 35.6 °F 30.7 °F 28.4 °F 75% 29.88 in 10.0 mi SSE 5.8 mph - N/A   Clear
6:13 AM 35.6 °F 30.7 °F 28.4 °F 75% 29.88 in 10.0 mi SSE 5.8 mph - N/A   Clear
6:33 AM 35.6 °F 31.7 °F 28.4 °F 75% 29.88 in 10.0 mi SSE 4.6 mph - N/A   Clear
6:53 AM 33.8 °F 28.6 °F 28.4 °F 81% 29.88 in 10.0 mi SE 5.8 mph - N/A   Clear
7:13 AM 35.6 °F 30.7 °F 30.2 °F 81% 29.87 in 10.0 mi ESE 5.8 mph - N/A   Clear
7:33 AM 33.8 °F 28.6 °F 28.4 °F 81% 29.87 in 10.0 mi SSE 5.8 mph - N/A   Clear
7:53 AM 33.8 °F 27.7 °F 28.4 °F 81% 29.87 in 10.0 mi SSE 6.9 mph - N/A   Clear
8:13 AM 33.8 °F 28.6 °F 30.2 °F 87% 29.88 in 10.0 mi SSE 5.8 mph - N/A   Clear
8:33 AM 35.6 °F 30.7 °F 30.2 °F 81% 29.87 in 10.0 mi SSE 5.8 mph - N/A   Clear
8:53 AM 37.4 °F 32.8 °F 30.2 °F 75% 29.87 in 10.0 mi SE 5.8 mph - N/A   Clear
9:13 AM 39.2 °F 35.0 °F 32.0 °F 75% 29.87 in 10.0 mi SE 5.8 mph - N/A   Clear
9:33 AM 42.8 °F 41.1 °F 32.0 °F 66% 29.87 in 10.0 mi SE 3.5 mph - N/A   Clear
9:53 AM 44.6 °F - 33.8 °F 66% 29.87 in 10.0 mi Calm Calm - N/A   Clear
10:13 AM 44.6 °F 42.2 °F 33.8 °F 66% 29.86 in 10.0 mi SE 4.6 mph - N/A   Clear
10:33 AM 46.4 °F 44.3 °F 33.8 °F 62% 29.85 in 10.0 mi ESE 4.6 mph - N/A   Clear
10:53 AM 48.2 °F - 33.8 °F 58% 29.85 in 10.0 mi SE 4.6 mph - N/A   Clear
11:13 AM 48.2 °F - 33.8 °F 58% 29.83 in 10.0 mi SSE 5.8 mph - N/A   Clear
11:33 AM 51.8 °F - 33.8 °F 50% 29.82 in 10.0 mi SE 8.1 mph - N/A   Clear
11:53 AM 53.6 °F - 33.8 °F 47% 29.81 in 10.0 mi SE 8.1 mph - N/A   Clear
12:13 PM 55.4 °F - 35.6 °F 47% 29.80 in 10.0 mi SSE 10.4 mph - N/A   Clear
12:33 PM 55.4 °F - 35.6 °F 47% 29.78 in 10.0 mi SSE 11.5 mph - N/A   Clear
12:53 PM 57.2 °F - 35.6 °F 44% 29.76 in 10.0 mi SSE 10.4 mph - N/A   Clear
1:13 PM 59.0 °F - 35.6 °F 42% 29.74 in 10.0 mi SE 10.4 mph - N/A   Clear
1:33 PM 57.2 °F - 33.8 °F 41% 29.74 in 10.0 mi SSE 11.5 mph - N/A   Clear
1:53 PM 60.8 °F - 32.0 °F 34% 29.73 in 10.0 mi SSE 13.8 mph - N/A   Clear
2:18 PM 60.8 °F - 33.8 °F 36% 29.72 in 10.0 mi SSE 12.7 mph - N/A   Clear
2:34 PM 60.8 °F - 33.8 °F 36% 29.71 in 10.0 mi SSE 10.4 mph - N/A   Clear
2:53 PM 60.8 °F - 33.8 °F 36% 29.70 in 10.0 mi SSE 11.5 mph - N/A   Clear
3:13 PM 60.8 °F - 33.8 °F 36% 29.68 in 10.0 mi SE 10.4 mph - N/A   Clear
3:34 PM 60.8 °F - 33.8 °F 36% 29.67 in 7.0 mi SE 15.0 mph - N/A   Clear
3:58 PM 59.0 °F - 33.8 °F 39% 29.66 in 10.0 mi SE 12.7 mph - N/A   Clear
4:13 PM 57.2 °F - 33.8 °F 41% 29.65 in 10.0 mi SE 10.4 mph - N/A   Clear
4:34 PM 55.4 °F - 33.8 °F 44% 29.66 in 10.0 mi SSE 10.4 mph - N/A   Clear
4:53 PM 53.6 °F - 33.8 °F 47% 29.65 in 10.0 mi SSE 10.4 mph - N/A   Clear
5:13 PM 53.6 °F - 33.8 °F 47% 29.65 in 10.0 mi SE 10.4 mph - N/A   Clear
5:34 PM 53.6 °F - 35.6 °F 51% 29.64 in 10.0 mi SE 13.8 mph - N/A   Clear
5:53 PM 51.8 °F - 35.6 °F 54% 29.63 in 10.0 mi SE 13.8 mph - N/A   Clear
6:13 PM 51.8 °F - 35.6 °F 54% 29.63 in 10.0 mi SE 11.5 mph - N/A   Clear
6:34 PM 51.8 °F - 35.6 °F 54% 29.63 in 10.0 mi SE 12.7 mph 17.3 mph N/A   Clear
6:53 PM 51.8 °F - 35.6 °F 54% 29.62 in 10.0 mi SE 10.4 mph 17.3 mph N/A   Clear
7:13 PM 51.8 °F - 35.6 °F 54% 29.62 in 10.0 mi SE 11.5 mph - N/A   Clear
7:33 PM 50.0 °F - 35.6 °F 58% 29.60 in 10.0 mi SE 11.5 mph - N/A   Clear
7:53 PM 51.8 °F - 35.6 °F 54% 29.58 in 10.0 mi SE 13.8 mph - N/A   Clear
8:13 PM 51.8 °F - 35.6 °F 54% 29.57 in 10.0 mi SSE 13.8 mph - N/A   Clear
8:33 PM 51.8 °F - 35.6 °F 54% 29.57 in 10.0 mi SSE 13.8 mph - N/A   Clear
8:53 PM 51.8 °F - 35.6 °F 54% 29.56 in 10.0 mi SSE 12.7 mph - N/A   Clear
9:13 PM 50.0 °F - 35.6 °F 58% 29.57 in 10.0 mi SSE 10.4 mph - N/A   Clear
9:33 PM 48.2 °F - 35.6 °F 62% 29.56 in 10.0 mi SSE 9.2 mph - N/A   Clear
9:53 PM 46.4 °F 41.9 °F 35.6 °F 66% 29.56 in 10.0 mi SSE 9.2 mph - N/A   Clear
10:13 PM 44.6 °F 39.2 °F 33.8 °F 66% 29.55 in 10.0 mi SSE 10.4 mph - N/A   Clear
10:33 PM 46.4 °F 41.9 °F 35.6 °F 66% 29.54 in 10.0 mi SSE 9.2 mph - N/A   Clear
10:53 PM 44.6 °F 39.7 °F 33.8 °F 66% 29.54 in 10.0 mi SSE 9.2 mph - N/A   Clear
11:13 PM 44.6 °F 40.2 °F 33.8 °F 66% 29.54 in 10.0 mi South 8.1 mph - N/A   Clear
11:33 PM 44.6 °F 40.2 °F 33.8 °F 66% 29.54 in 10.0 mi South 8.1 mph - N/A   Clear
11:53 PM 42.8 °F 38.6 °F 32.0 °F 66% 29.54 in 10.0 mi South 6.9 mph - N/A   Clear